sensor_id;sensor_type;location;lat;lon;timestamp;P1;durP1;ratioP1;P2;durP2;ratioP2
25581;SDS011;13462;50.764;4.332;2023-11-21T00:01:58;49.97;;;22.02;;
25581;SDS011;13462;50.764;4.332;2023-11-21T00:04:24;51.50;;;19.42;;
25581;SDS011;13462;50.764;4.332;2023-11-21T00:06:50;50.35;;;18.42;;
25581;SDS011;13462;50.764;4.332;2023-11-21T00:09:16;49.22;;;20.75;;
25581;SDS011;13462;50.764;4.332;2023-11-21T00:11:42;51.83;;;19.65;;
25581;SDS011;13462;50.764;4.332;2023-11-21T00:14:09;49.92;;;21.15;;
25581;SDS011;13462;50.764;4.332;2023-11-21T00:16:35;49.60;;;19.63;;
25581;SDS011;13462;50.764;4.332;2023-11-21T00:19:01;52.42;;;19.63;;
25581;SDS011;13462;50.764;4.332;2023-11-21T00:21:26;48.95;;;19.02;;
25581;SDS011;13462;50.764;4.332;2023-11-21T00:23:52;53.10;;;19.30;;
25581;SDS011;13462;50.764;4.332;2023-11-21T00:26:17;49.58;;;19.88;;
25581;SDS011;13462;50.764;4.332;2023-11-21T00:28:43;52.50;;;21.05;;
25581;SDS011;13462;50.764;4.332;2023-11-21T00:31:09;53.75;;;19.35;;
25581;SDS011;13462;50.764;4.332;2023-11-21T00:33:34;59.60;;;22.77;;
25581;SDS011;13462;50.764;4.332;2023-11-21T00:36:00;46.10;;;18.42;;
25581;SDS011;13462;50.764;4.332;2023-11-21T00:38:25;51.35;;;19.77;;
25581;SDS011;13462;50.764;4.332;2023-11-21T00:40:52;50.97;;;20.98;;
25581;SDS011;13462;50.764;4.332;2023-11-21T00:43:21;47.78;;;18.80;;
25581;SDS011;13462;50.764;4.332;2023-11-21T00:45:49;48.88;;;20.17;;
25581;SDS011;13462;50.764;4.332;2023-11-21T00:48:16;50.78;;;18.80;;
25581;SDS011;13462;50.764;4.332;2023-11-21T00:50:42;49.47;;;19.85;;
25581;SDS011;13462;50.764;4.332;2023-11-21T00:53:08;52.42;;;19.92;;
25581;SDS011;13462;50.764;4.332;2023-11-21T00:55:34;48.10;;;20.98;;
25581;SDS011;13462;50.764;4.332;2023-11-21T00:58:00;51.47;;;20.55;;
25581;SDS011;13462;50.764;4.332;2023-11-21T01:00:28;50.75;;;19.92;;
25581;SDS011;13462;50.764;4.332;2023-11-21T01:02:53;48.67;;;19.67;;
25581;SDS011;13462;50.764;4.332;2023-11-21T01:05:19;47.75;;;19.45;;
25581;SDS011;13462;50.764;4.332;2023-11-21T01:07:45;50.10;;;19.30;;
25581;SDS011;13462;50.764;4.332;2023-11-21T01:10:10;50.30;;;19.63;;
25581;SDS011;13462;50.764;4.332;2023-11-21T01:12:36;44.92;;;18.10;;
25581;SDS011;13462;50.764;4.332;2023-11-21T01:15:03;46.13;;;18.58;;
25581;SDS011;13462;50.764;4.332;2023-11-21T01:17:32;38.05;;;17.42;;
25581;SDS011;13462;50.764;4.332;2023-11-21T01:19:59;43.50;;;17.70;;
25581;SDS011;13462;50.764;4.332;2023-11-21T01:22:25;48.17;;;19.67;;
25581;SDS011;13462;50.764;4.332;2023-11-21T01:24:52;52.75;;;20.05;;
25581;SDS011;13462;50.764;4.332;2023-11-21T01:27:18;50.92;;;19.38;;
25581;SDS011;13462;50.764;4.332;2023-11-21T01:29:44;51.80;;;18.05;;
25581;SDS011;13462;50.764;4.332;2023-11-21T01:32:09;46.03;;;18.42;;
25581;SDS011;13462;50.764;4.332;2023-11-21T01:34:35;46.17;;;19.05;;
25581;SDS011;13462;50.764;4.332;2023-11-21T01:37:01;45.40;;;19.60;;
25581;SDS011;13462;50.764;4.332;2023-11-21T01:39:29;49.40;;;20.58;;
25581;SDS011;13462;50.764;4.332;2023-11-21T01:41:55;51.53;;;20.42;;
25581;SDS011;13462;50.764;4.332;2023-11-21T01:44:23;46.90;;;19.20;;
25581;SDS011;13462;50.764;4.332;2023-11-21T01:46:49;52.42;;;20.73;;
25581;SDS011;13462;50.764;4.332;2023-11-21T01:49:16;51.60;;;21.85;;
25581;SDS011;13462;50.764;4.332;2023-11-21T01:51:47;47.97;;;18.88;;
25581;SDS011;13462;50.764;4.332;2023-11-21T01:54:14;41.50;;;17.13;;
25581;SDS011;13462;50.764;4.332;2023-11-21T01:56:42;47.53;;;19.08;;
25581;SDS011;13462;50.764;4.332;2023-11-21T01:59:09;46.05;;;20.52;;
25581;SDS011;13462;50.764;4.332;2023-11-21T02:01:36;49.42;;;19.65;;
25581;SDS011;13462;50.764;4.332;2023-11-21T02:04:02;38.13;;;15.85;;
25581;SDS011;13462;50.764;4.332;2023-11-21T02:06:28;39.45;;;16.45;;
25581;SDS011;13462;50.764;4.332;2023-11-21T02:08:56;40.97;;;17.60;;
25581;SDS011;13462;50.764;4.332;2023-11-21T02:11:21;38.47;;;17.52;;
25581;SDS011;13462;50.764;4.332;2023-11-21T02:13:47;44.97;;;17.77;;
25581;SDS011;13462;50.764;4.332;2023-11-21T02:16:15;47.65;;;18.65;;
25581;SDS011;13462;50.764;4.332;2023-11-21T02:18:40;54.50;;;20.58;;
25581;SDS011;13462;50.764;4.332;2023-11-21T02:21:06;47.38;;;19.48;;
25581;SDS011;13462;50.764;4.332;2023-11-21T02:23:33;49.10;;;20.33;;
25581;SDS011;13462;50.764;4.332;2023-11-21T02:25:58;48.38;;;20.60;;
25581;SDS011;13462;50.764;4.332;2023-11-21T02:28:24;46.67;;;20.27;;
25581;SDS011;13462;50.764;4.332;2023-11-21T02:30:53;60.00;;;22.70;;
25581;SDS011;13462;50.764;4.332;2023-11-21T02:33:21;46.28;;;20.48;;
25581;SDS011;13462;50.764;4.332;2023-11-21T02:35:47;57.05;;;22.13;;
25581;SDS011;13462;50.764;4.332;2023-11-21T02:38:13;53.03;;;22.73;;
25581;SDS011;13462;50.764;4.332;2023-11-21T02:40:39;53.80;;;21.90;;
25581;SDS011;13462;50.764;4.332;2023-11-21T02:43:04;62.63;;;24.13;;
25581;SDS011;13462;50.764;4.332;2023-11-21T02:45:31;53.92;;;22.75;;
25581;SDS011;13462;50.764;4.332;2023-11-21T02:47:57;54.78;;;22.30;;
25581;SDS011;13462;50.764;4.332;2023-11-21T02:50:23;60.53;;;24.60;;
25581;SDS011;13462;50.764;4.332;2023-11-21T02:52:48;54.63;;;25.67;;
25581;SDS011;13462;50.764;4.332;2023-11-21T02:55:14;60.08;;;23.13;;
25581;SDS011;13462;50.764;4.332;2023-11-21T02:57:40;61.58;;;23.98;;
25581;SDS011;13462;50.764;4.332;2023-11-21T03:00:06;64.22;;;23.80;;
25581;SDS011;13462;50.764;4.332;2023-11-21T03:02:32;56.83;;;23.60;;
25581;SDS011;13462;50.764;4.332;2023-11-21T03:05:01;56.88;;;24.35;;
25581;SDS011;13462;50.764;4.332;2023-11-21T03:07:27;54.38;;;23.80;;
25581;SDS011;13462;50.764;4.332;2023-11-21T03:09:52;55.38;;;24.08;;
25581;SDS011;13462;50.764;4.332;2023-11-21T03:12:18;55.08;;;24.38;;
25581;SDS011;13462;50.764;4.332;2023-11-21T03:14:44;54.30;;;24.23;;
25581;SDS011;13462;50.764;4.332;2023-11-21T03:17:10;61.33;;;25.80;;
25581;SDS011;13462;50.764;4.332;2023-11-21T03:19:36;64.00;;;24.80;;
25581;SDS011;13462;50.764;4.332;2023-11-21T03:22:02;55.47;;;23.75;;
25581;SDS011;13462;50.764;4.332;2023-11-21T03:24:29;58.45;;;23.92;;
25581;SDS011;13462;50.764;4.332;2023-11-21T03:26:55;59.40;;;24.45;;
25581;SDS011;13462;50.764;4.332;2023-11-21T03:29:21;62.25;;;24.42;;
25581;SDS011;13462;50.764;4.332;2023-11-21T03:31:46;53.83;;;24.90;;
25581;SDS011;13462;50.764;4.332;2023-11-21T03:34:16;63.83;;;26.77;;
25581;SDS011;13462;50.764;4.332;2023-11-21T03:36:49;58.45;;;25.77;;
25581;SDS011;13462;50.764;4.332;2023-11-21T03:39:14;58.63;;;25.08;;
25581;SDS011;13462;50.764;4.332;2023-11-21T03:41:40;63.92;;;25.05;;
25581;SDS011;13462;50.764;4.332;2023-11-21T03:44:05;59.35;;;24.38;;
25581;SDS011;13462;50.764;4.332;2023-11-21T03:46:31;59.17;;;26.00;;
25581;SDS011;13462;50.764;4.332;2023-11-21T03:48:56;56.60;;;25.60;;
25581;SDS011;13462;50.764;4.332;2023-11-21T03:51:22;58.95;;;24.33;;
25581;SDS011;13462;50.764;4.332;2023-11-21T03:53:47;49.80;;;23.27;;
25581;SDS011;13462;50.764;4.332;2023-11-21T03:56:13;57.03;;;22.98;;
25581;SDS011;13462;50.764;4.332;2023-11-21T03:58:39;50.03;;;22.42;;
25581;SDS011;13462;50.764;4.332;2023-11-21T04:01:05;50.10;;;21.33;;
25581;SDS011;13462;50.764;4.332;2023-11-21T04:03:31;48.92;;;23.85;;
25581;SDS011;13462;50.764;4.332;2023-11-21T04:05:56;54.30;;;22.55;;
25581;SDS011;13462;50.764;4.332;2023-11-21T04:08:22;49.90;;;23.08;;
25581;SDS011;13462;50.764;4.332;2023-11-21T04:10:47;46.67;;;22.35;;
25581;SDS011;13462;50.764;4.332;2023-11-21T04:13:13;52.30;;;22.05;;
25581;SDS011;13462;50.764;4.332;2023-11-21T04:15:39;47.40;;;22.17;;
25581;SDS011;13462;50.764;4.332;2023-11-21T04:18:05;45.50;;;22.45;;
25581;SDS011;13462;50.764;4.332;2023-11-21T04:20:30;50.60;;;23.70;;
25581;SDS011;13462;50.764;4.332;2023-11-21T04:22:56;49.17;;;23.85;;
25581;SDS011;13462;50.764;4.332;2023-11-21T04:25:22;43.97;;;22.35;;
25581;SDS011;13462;50.764;4.332;2023-11-21T04:27:48;46.92;;;23.85;;
25581;SDS011;13462;50.764;4.332;2023-11-21T04:30:14;54.90;;;24.33;;
25581;SDS011;13462;50.764;4.332;2023-11-21T04:32:40;48.78;;;23.63;;
25581;SDS011;13462;50.764;4.332;2023-11-21T04:35:07;47.00;;;23.60;;
25581;SDS011;13462;50.764;4.332;2023-11-21T04:37:33;52.55;;;23.52;;
25581;SDS011;13462;50.764;4.332;2023-11-21T04:39:59;51.88;;;24.50;;
25581;SDS011;13462;50.764;4.332;2023-11-21T04:42:24;51.10;;;25.17;;
25581;SDS011;13462;50.764;4.332;2023-11-21T04:44:50;47.53;;;22.90;;
25581;SDS011;13462;50.764;4.332;2023-11-21T04:47:17;51.38;;;23.17;;
25581;SDS011;13462;50.764;4.332;2023-11-21T04:49:45;48.40;;;22.65;;
25581;SDS011;13462;50.764;4.332;2023-11-21T04:52:14;52.53;;;22.73;;
25581;SDS011;13462;50.764;4.332;2023-11-21T04:54:40;49.95;;;23.20;;
25581;SDS011;13462;50.764;4.332;2023-11-21T04:57:05;45.38;;;23.05;;
25581;SDS011;13462;50.764;4.332;2023-11-21T04:59:32;52.28;;;22.27;;
25581;SDS011;13462;50.764;4.332;2023-11-21T05:01:59;51.28;;;23.25;;
25581;SDS011;13462;50.764;4.332;2023-11-21T05:04:25;53.83;;;24.55;;
25581;SDS011;13462;50.764;4.332;2023-11-21T05:06:50;46.92;;;23.55;;
25581;SDS011;13462;50.764;4.332;2023-11-21T05:09:16;47.70;;;22.73;;
25581;SDS011;13462;50.764;4.332;2023-11-21T05:11:42;39.92;;;20.58;;
25581;SDS011;13462;50.764;4.332;2023-11-21T05:14:08;42.85;;;21.77;;
25581;SDS011;13462;50.764;4.332;2023-11-21T05:16:34;41.45;;;23.55;;
25581;SDS011;13462;50.764;4.332;2023-11-21T05:19:00;40.30;;;21.67;;
25581;SDS011;13462;50.764;4.332;2023-11-21T05:21:29;43.03;;;20.88;;
25581;SDS011;13462;50.764;4.332;2023-11-21T05:23:57;42.97;;;20.05;;
25581;SDS011;13462;50.764;4.332;2023-11-21T05:26:23;38.95;;;20.85;;
25581;SDS011;13462;50.764;4.332;2023-11-21T05:28:49;44.70;;;21.17;;
25581;SDS011;13462;50.764;4.332;2023-11-21T05:31:15;41.00;;;21.13;;
25581;SDS011;13462;50.764;4.332;2023-11-21T05:33:40;42.38;;;21.63;;
25581;SDS011;13462;50.764;4.332;2023-11-21T05:36:06;46.13;;;22.50;;
25581;SDS011;13462;50.764;4.332;2023-11-21T05:38:33;46.53;;;22.63;;
25581;SDS011;13462;50.764;4.332;2023-11-21T05:40:59;44.65;;;22.60;;
25581;SDS011;13462;50.764;4.332;2023-11-21T05:43:24;44.47;;;23.20;;
25581;SDS011;13462;50.764;4.332;2023-11-21T05:45:50;50.38;;;22.25;;
25581;SDS011;13462;50.764;4.332;2023-11-21T05:48:15;45.60;;;23.00;;
25581;SDS011;13462;50.764;4.332;2023-11-21T05:50:41;45.75;;;21.77;;
25581;SDS011;13462;50.764;4.332;2023-11-21T05:53:06;46.47;;;21.65;;
25581;SDS011;13462;50.764;4.332;2023-11-21T05:55:34;46.42;;;22.05;;
25581;SDS011;13462;50.764;4.332;2023-11-21T05:58:00;47.85;;;23.02;;
25581;SDS011;13462;50.764;4.332;2023-11-21T06:00:25;43.40;;;21.90;;
25581;SDS011;13462;50.764;4.332;2023-11-21T06:02:52;50.53;;;23.05;;
25581;SDS011;13462;50.764;4.332;2023-11-21T06:05:19;39.92;;;21.63;;
25581;SDS011;13462;50.764;4.332;2023-11-21T06:07:47;49.83;;;22.65;;
25581;SDS011;13462;50.764;4.332;2023-11-21T06:10:13;47.53;;;22.52;;
25581;SDS011;13462;50.764;4.332;2023-11-21T06:12:39;48.00;;;22.35;;
25581;SDS011;13462;50.764;4.332;2023-11-21T06:15:07;44.75;;;22.80;;
25581;SDS011;13462;50.764;4.332;2023-11-21T06:17:34;46.42;;;20.92;;
25581;SDS011;13462;50.764;4.332;2023-11-21T06:20:05;40.97;;;20.20;;
25581;SDS011;13462;50.764;4.332;2023-11-21T06:22:35;40.47;;;20.92;;
25581;SDS011;13462;50.764;4.332;2023-11-21T06:25:04;47.42;;;23.45;;
25581;SDS011;13462;50.764;4.332;2023-11-21T06:27:31;41.65;;;20.83;;
25581;SDS011;13462;50.764;4.332;2023-11-21T06:29:58;44.60;;;20.80;;
25581;SDS011;13462;50.764;4.332;2023-11-21T06:32:23;50.38;;;23.45;;
25581;SDS011;13462;50.764;4.332;2023-11-21T06:34:49;39.47;;;21.45;;
25581;SDS011;13462;50.764;4.332;2023-11-21T06:37:15;51.55;;;25.08;;
25581;SDS011;13462;50.764;4.332;2023-11-21T06:39:41;47.00;;;21.67;;
25581;SDS011;13462;50.764;4.332;2023-11-21T06:42:07;49.65;;;23.20;;
25581;SDS011;13462;50.764;4.332;2023-11-21T06:44:33;43.75;;;22.08;;
25581;SDS011;13462;50.764;4.332;2023-11-21T06:47:00;45.25;;;23.40;;
25581;SDS011;13462;50.764;4.332;2023-11-21T06:49:25;52.30;;;23.40;;
25581;SDS011;13462;50.764;4.332;2023-11-21T06:51:51;50.90;;;23.60;;
25581;SDS011;13462;50.764;4.332;2023-11-21T06:54:18;49.45;;;23.58;;
25581;SDS011;13462;50.764;4.332;2023-11-21T06:56:43;49.03;;;22.73;;
25581;SDS011;13462;50.764;4.332;2023-11-21T06:59:09;43.00;;;21.90;;
25581;SDS011;13462;50.764;4.332;2023-11-21T07:01:35;44.55;;;21.80;;
25581;SDS011;13462;50.764;4.332;2023-11-21T07:04:04;43.80;;;23.25;;
25581;SDS011;13462;50.764;4.332;2023-11-21T07:06:31;46.70;;;22.35;;
25581;SDS011;13462;50.764;4.332;2023-11-21T07:08:57;44.00;;;23.17;;
25581;SDS011;13462;50.764;4.332;2023-11-21T07:11:23;46.22;;;22.50;;
25581;SDS011;13462;50.764;4.332;2023-11-21T07:13:50;44.28;;;21.52;;
25581;SDS011;13462;50.764;4.332;2023-11-21T07:16:15;43.30;;;22.15;;
25581;SDS011;13462;50.764;4.332;2023-11-21T07:18:41;45.30;;;21.33;;
25581;SDS011;13462;50.764;4.332;2023-11-21T07:21:07;44.85;;;22.30;;
25581;SDS011;13462;50.764;4.332;2023-11-21T07:23:33;46.78;;;24.92;;
25581;SDS011;13462;50.764;4.332;2023-11-21T07:25:59;52.22;;;24.17;;
25581;SDS011;13462;50.764;4.332;2023-11-21T07:28:24;51.00;;;24.63;;
25581;SDS011;13462;50.764;4.332;2023-11-21T07:30:50;63.00;;;25.63;;
25581;SDS011;13462;50.764;4.332;2023-11-21T07:33:16;56.97;;;26.15;;
25581;SDS011;13462;50.764;4.332;2023-11-21T07:35:42;58.88;;;26.42;;
25581;SDS011;13462;50.764;4.332;2023-11-21T07:38:08;57.60;;;26.55;;
25581;SDS011;13462;50.764;4.332;2023-11-21T07:40:33;68.57;;;28.33;;
25581;SDS011;13462;50.764;4.332;2023-11-21T07:42:59;55.83;;;26.05;;
25581;SDS011;13462;50.764;4.332;2023-11-21T07:45:25;62.10;;;27.85;;
25581;SDS011;13462;50.764;4.332;2023-11-21T07:47:52;59.28;;;25.90;;
25581;SDS011;13462;50.764;4.332;2023-11-21T07:50:19;66.93;;;26.27;;
25581;SDS011;13462;50.764;4.332;2023-11-21T07:52:45;71.15;;;27.40;;
25581;SDS011;13462;50.764;4.332;2023-11-21T07:55:11;75.13;;;27.92;;
25581;SDS011;13462;50.764;4.332;2023-11-21T07:57:36;73.38;;;25.85;;
25581;SDS011;13462;50.764;4.332;2023-11-21T08:00:03;80.95;;;29.60;;
25581;SDS011;13462;50.764;4.332;2023-11-21T08:02:31;77.00;;;28.30;;
25581;SDS011;13462;50.764;4.332;2023-11-21T08:04:57;67.57;;;29.63;;
25581;SDS011;13462;50.764;4.332;2023-11-21T08:07:22;68.45;;;29.52;;
25581;SDS011;13462;50.764;4.332;2023-11-21T08:09:48;61.85;;;26.35;;
25581;SDS011;13462;50.764;4.332;2023-11-21T08:12:15;80.30;;;28.48;;
25581;SDS011;13462;50.764;4.332;2023-11-21T08:14:40;72.47;;;27.17;;
25581;SDS011;13462;50.764;4.332;2023-11-21T08:17:06;74.88;;;27.98;;
25581;SDS011;13462;50.764;4.332;2023-11-21T08:19:32;76.88;;;27.95;;
25581;SDS011;13462;50.764;4.332;2023-11-21T08:21:57;75.25;;;26.52;;
25581;SDS011;13462;50.764;4.332;2023-11-21T08:24:24;66.95;;;29.27;;
25581;SDS011;13462;50.764;4.332;2023-11-21T08:26:50;64.93;;;28.42;;
25581;SDS011;13462;50.764;4.332;2023-11-21T08:29:17;70.45;;;27.17;;
25581;SDS011;13462;50.764;4.332;2023-11-21T08:31:43;65.85;;;27.33;;
25581;SDS011;13462;50.764;4.332;2023-11-21T08:34:11;70.45;;;27.35;;
25581;SDS011;13462;50.764;4.332;2023-11-21T08:36:46;70.13;;;25.90;;
25581;SDS011;13462;50.764;4.332;2023-11-21T08:39:12;68.85;;;29.17;;
25581;SDS011;13462;50.764;4.332;2023-11-21T08:41:38;64.88;;;25.02;;
25581;SDS011;13462;50.764;4.332;2023-11-21T08:44:04;66.13;;;26.98;;
25581;SDS011;13462;50.764;4.332;2023-11-21T08:46:32;66.05;;;26.73;;
25581;SDS011;13462;50.764;4.332;2023-11-21T08:48:58;63.03;;;27.23;;
25581;SDS011;13462;50.764;4.332;2023-11-21T08:51:26;66.25;;;25.92;;
25581;SDS011;13462;50.764;4.332;2023-11-21T08:53:51;65.32;;;28.63;;
25581;SDS011;13462;50.764;4.332;2023-11-21T08:56:18;65.75;;;26.67;;
25581;SDS011;13462;50.764;4.332;2023-11-21T08:58:45;64.72;;;26.88;;
25581;SDS011;13462;50.764;4.332;2023-11-21T09:01:11;66.18;;;27.67;;
25581;SDS011;13462;50.764;4.332;2023-11-21T09:03:37;65.30;;;28.30;;
25581;SDS011;13462;50.764;4.332;2023-11-21T09:06:03;59.58;;;24.23;;
25581;SDS011;13462;50.764;4.332;2023-11-21T09:08:29;61.45;;;24.25;;
25581;SDS011;13462;50.764;4.332;2023-11-21T09:10:55;60.33;;;25.98;;
25581;SDS011;13462;50.764;4.332;2023-11-21T09:13:20;58.38;;;24.27;;
25581;SDS011;13462;50.764;4.332;2023-11-21T09:15:46;63.33;;;25.58;;
25581;SDS011;13462;50.764;4.332;2023-11-21T09:18:14;62.10;;;24.27;;
25581;SDS011;13462;50.764;4.332;2023-11-21T09:20:40;61.95;;;25.63;;
25581;SDS011;13462;50.764;4.332;2023-11-21T09:23:09;58.17;;;23.63;;
25581;SDS011;13462;50.764;4.332;2023-11-21T09:25:34;64.45;;;25.50;;
25581;SDS011;13462;50.764;4.332;2023-11-21T09:28:02;68.63;;;26.58;;
25581;SDS011;13462;50.764;4.332;2023-11-21T09:30:32;66.55;;;26.60;;
25581;SDS011;13462;50.764;4.332;2023-11-21T09:32:58;68.57;;;25.13;;
25581;SDS011;13462;50.764;4.332;2023-11-21T09:35:25;55.95;;;24.73;;
25581;SDS011;13462;50.764;4.332;2023-11-21T09:37:52;65.82;;;25.60;;
25581;SDS011;13462;50.764;4.332;2023-11-21T09:40:20;60.45;;;25.98;;
25581;SDS011;13462;50.764;4.332;2023-11-21T09:42:56;61.58;;;24.52;;
25581;SDS011;13462;50.764;4.332;2023-11-21T09:45:31;68.78;;;26.55;;
25581;SDS011;13462;50.764;4.332;2023-11-21T09:47:59;66.60;;;27.25;;
25581;SDS011;13462;50.764;4.332;2023-11-21T09:50:26;66.28;;;27.95;;
25581;SDS011;13462;50.764;4.332;2023-11-21T09:55:44;51.90;;;22.70;;
25581;SDS011;13462;50.764;4.332;2023-11-21T09:58:11;69.78;;;24.63;;
25581;SDS011;13462;50.764;4.332;2023-11-21T10:00:41;68.35;;;24.58;;
25581;SDS011;13462;50.764;4.332;2023-11-21T10:03:09;65.15;;;25.73;;
25581;SDS011;13462;50.764;4.332;2023-11-21T10:05:36;75.15;;;25.08;;
25581;SDS011;13462;50.764;4.332;2023-11-21T10:08:09;66.70;;;27.33;;
25581;SDS011;13462;50.764;4.332;2023-11-21T10:10:36;72.97;;;29.90;;
25581;SDS011;13462;50.764;4.332;2023-11-21T10:13:03;76.00;;;30.65;;
25581;SDS011;13462;50.764;4.332;2023-11-21T10:15:33;74.88;;;27.05;;
25581;SDS011;13462;50.764;4.332;2023-11-21T10:17:59;70.63;;;28.02;;
25581;SDS011;13462;50.764;4.332;2023-11-21T10:20:31;71.75;;;27.50;;
25581;SDS011;13462;50.764;4.332;2023-11-21T10:23:02;70.25;;;27.10;;
25581;SDS011;13462;50.764;4.332;2023-11-21T10:25:28;80.00;;;30.60;;
25581;SDS011;13462;50.764;4.332;2023-11-21T10:27:57;69.60;;;28.67;;
25581;SDS011;13462;50.764;4.332;2023-11-21T10:30:36;78.55;;;30.15;;
25581;SDS011;13462;50.764;4.332;2023-11-21T10:33:04;59.47;;;25.85;;
25581;SDS011;13462;50.764;4.332;2023-11-21T10:35:48;57.85;;;24.13;;
25581;SDS011;13462;50.764;4.332;2023-11-21T10:38:20;59.78;;;23.33;;
25581;SDS011;13462;50.764;4.332;2023-11-21T10:40:48;51.65;;;24.23;;
25581;SDS011;13462;50.764;4.332;2023-11-21T10:43:14;44.88;;;21.90;;
25581;SDS011;13462;50.764;4.332;2023-11-21T10:45:40;49.88;;;22.05;;
25581;SDS011;13462;50.764;4.332;2023-11-21T10:48:11;48.88;;;21.85;;
25581;SDS011;13462;50.764;4.332;2023-11-21T10:50:41;44.97;;;20.33;;
25581;SDS011;13462;50.764;4.332;2023-11-21T10:53:11;43.47;;;21.30;;
25581;SDS011;13462;50.764;4.332;2023-11-21T10:55:37;41.30;;;20.25;;
25581;SDS011;13462;50.764;4.332;2023-11-21T10:58:03;40.17;;;19.55;;
25581;SDS011;13462;50.764;4.332;2023-11-21T11:00:30;36.90;;;19.20;;
25581;SDS011;13462;50.764;4.332;2023-11-21T11:02:58;44.05;;;20.52;;
25581;SDS011;13462;50.764;4.332;2023-11-21T11:05:26;36.78;;;18.55;;
25581;SDS011;13462;50.764;4.332;2023-11-21T11:08:04;38.38;;;19.92;;
25581;SDS011;13462;50.764;4.332;2023-11-21T11:10:31;32.70;;;17.98;;
25581;SDS011;13462;50.764;4.332;2023-11-21T11:12:57;38.72;;;19.17;;
25581;SDS011;13462;50.764;4.332;2023-11-21T11:15:24;36.63;;;18.20;;
25581;SDS011;13462;50.764;4.332;2023-11-21T11:17:51;32.78;;;18.27;;
25581;SDS011;13462;50.764;4.332;2023-11-21T11:20:17;33.17;;;18.50;;
25581;SDS011;13462;50.764;4.332;2023-11-21T11:34:32;40.97;;;20.65;;
25581;SDS011;13462;50.764;4.332;2023-11-21T11:37:03;43.72;;;20.83;;
25581;SDS011;13462;50.764;4.332;2023-11-21T11:39:38;44.72;;;21.17;;
25581;SDS011;13462;50.764;4.332;2023-11-21T11:42:11;40.70;;;21.95;;
25581;SDS011;13462;50.764;4.332;2023-11-21T11:47:30;45.67;;;21.02;;
25581;SDS011;13462;50.764;4.332;2023-11-21T11:50:09;38.58;;;20.50;;
25581;SDS011;13462;50.764;4.332;2023-11-21T11:52:39;40.35;;;20.65;;
25581;SDS011;13462;50.764;4.332;2023-11-21T11:55:10;38.67;;;22.17;;
25581;SDS011;13462;50.764;4.332;2023-11-21T11:57:38;42.38;;;21.83;;
25581;SDS011;13462;50.764;4.332;2023-11-21T12:02:47;50.10;;;23.13;;
25581;SDS011;13462;50.764;4.332;2023-11-21T12:05:14;40.90;;;20.08;;
25581;SDS011;13462;50.764;4.332;2023-11-21T12:07:46;45.70;;;21.23;;
25581;SDS011;13462;50.764;4.332;2023-11-21T12:10:18;46.28;;;21.67;;
25581;SDS011;13462;50.764;4.332;2023-11-21T12:15:17;39.50;;;21.30;;
25581;SDS011;13462;50.764;4.332;2023-11-21T12:17:44;35.50;;;19.45;;
25581;SDS011;13462;50.764;4.332;2023-11-21T12:20:11;30.00;;;18.13;;
25581;SDS011;13462;50.764;4.332;2023-11-21T12:22:41;30.75;;;17.13;;
25581;SDS011;13462;50.764;4.332;2023-11-21T12:25:16;30.83;;;17.75;;
25581;SDS011;13462;50.764;4.332;2023-11-21T12:27:43;29.35;;;16.48;;
25581;SDS011;13462;50.764;4.332;2023-11-21T12:30:10;27.50;;;15.55;;
25581;SDS011;13462;50.764;4.332;2023-11-21T12:32:40;24.42;;;14.95;;
25581;SDS011;13462;50.764;4.332;2023-11-21T12:35:07;25.02;;;13.88;;
25581;SDS011;13462;50.764;4.332;2023-11-21T12:37:35;21.20;;;13.57;;
25581;SDS011;13462;50.764;4.332;2023-11-21T12:40:02;22.50;;;13.63;;
25581;SDS011;13462;50.764;4.332;2023-11-21T12:42:29;26.05;;;15.88;;
25581;SDS011;13462;50.764;4.332;2023-11-21T12:45:09;22.48;;;14.35;;
25581;SDS011;13462;50.764;4.332;2023-11-21T12:47:56;25.35;;;14.55;;
25581;SDS011;13462;50.764;4.332;2023-11-21T12:50:29;25.67;;;14.35;;
25581;SDS011;13462;50.764;4.332;2023-11-21T12:53:02;24.60;;;14.43;;
25581;SDS011;13462;50.764;4.332;2023-11-21T12:55:33;21.08;;;14.25;;
25581;SDS011;13462;50.764;4.332;2023-11-21T12:58:03;23.83;;;14.60;;
25581;SDS011;13462;50.764;4.332;2023-11-21T13:00:35;22.70;;;14.35;;
25581;SDS011;13462;50.764;4.332;2023-11-21T13:03:05;21.38;;;12.73;;
25581;SDS011;13462;50.764;4.332;2023-11-21T13:05:33;20.80;;;13.23;;
25581;SDS011;13462;50.764;4.332;2023-11-21T13:08:03;21.58;;;13.38;;
25581;SDS011;13462;50.764;4.332;2023-11-21T13:10:32;20.58;;;13.13;;
25581;SDS011;13462;50.764;4.332;2023-11-21T13:13:01;21.42;;;14.00;;
25581;SDS011;13462;50.764;4.332;2023-11-21T13:15:30;21.77;;;12.82;;
25581;SDS011;13462;50.764;4.332;2023-11-21T13:17:57;20.83;;;13.25;;
25581;SDS011;13462;50.764;4.332;2023-11-21T13:20:26;21.23;;;12.27;;
25581;SDS011;13462;50.764;4.332;2023-11-21T13:22:52;22.90;;;12.30;;
25581;SDS011;13462;50.764;4.332;2023-11-21T13:25:22;19.83;;;12.90;;
25581;SDS011;13462;50.764;4.332;2023-11-21T13:27:53;20.55;;;11.95;;
25581;SDS011;13462;50.764;4.332;2023-11-21T13:30:19;21.40;;;12.77;;
25581;SDS011;13462;50.764;4.332;2023-11-21T13:32:58;18.83;;;12.05;;
25581;SDS011;13462;50.764;4.332;2023-11-21T13:35:31;25.30;;;13.07;;
25581;SDS011;13462;50.764;4.332;2023-11-21T13:38:12;21.65;;;12.63;;
25581;SDS011;13462;50.764;4.332;2023-11-21T13:40:40;25.60;;;13.25;;
25581;SDS011;13462;50.764;4.332;2023-11-21T13:43:14;23.58;;;13.95;;
25581;SDS011;13462;50.764;4.332;2023-11-21T13:45:43;25.35;;;13.75;;
25581;SDS011;13462;50.764;4.332;2023-11-21T13:48:10;25.60;;;13.27;;
25581;SDS011;13462;50.764;4.332;2023-11-21T13:50:41;25.38;;;13.88;;
25581;SDS011;13462;50.764;4.332;2023-11-21T13:53:22;21.13;;;13.13;;
25581;SDS011;13462;50.764;4.332;2023-11-21T13:55:49;25.10;;;14.77;;
25581;SDS011;13462;50.764;4.332;2023-11-21T13:58:16;23.88;;;13.13;;
25581;SDS011;13462;50.764;4.332;2023-11-21T14:00:48;25.65;;;14.07;;
25581;SDS011;13462;50.764;4.332;2023-11-21T14:03:21;28.67;;;15.20;;
25581;SDS011;13462;50.764;4.332;2023-11-21T14:05:48;25.55;;;16.15;;
25581;SDS011;13462;50.764;4.332;2023-11-21T14:08:19;28.17;;;15.68;;
25581;SDS011;13462;50.764;4.332;2023-11-21T14:10:46;25.50;;;15.50;;
25581;SDS011;13462;50.764;4.332;2023-11-21T14:13:22;27.15;;;13.93;;
25581;SDS011;13462;50.764;4.332;2023-11-21T14:15:49;21.08;;;13.55;;
25581;SDS011;13462;50.764;4.332;2023-11-21T14:18:17;22.73;;;13.98;;
25581;SDS011;13462;50.764;4.332;2023-11-21T14:20:51;26.40;;;13.85;;
25581;SDS011;13462;50.764;4.332;2023-11-21T14:23:16;21.40;;;13.93;;
25581;SDS011;13462;50.764;4.332;2023-11-21T14:25:43;20.60;;;13.50;;
25581;SDS011;13462;50.764;4.332;2023-11-21T14:28:08;22.15;;;14.07;;
25581;SDS011;13462;50.764;4.332;2023-11-21T14:30:36;19.80;;;12.52;;
25581;SDS011;13462;50.764;4.332;2023-11-21T14:33:04;18.95;;;11.85;;
25581;SDS011;13462;50.764;4.332;2023-11-21T14:35:31;17.70;;;11.23;;
25581;SDS011;13462;50.764;4.332;2023-11-21T14:37:57;16.83;;;10.30;;
25581;SDS011;13462;50.764;4.332;2023-11-21T14:40:24;16.27;;;9.98;;
25581;SDS011;13462;50.764;4.332;2023-11-21T14:42:50;21.77;;;10.85;;
25581;SDS011;13462;50.764;4.332;2023-11-21T14:45:18;17.77;;;10.73;;